createdAt,value
2018-04-15T00:00:16.234Z,14.40
2018-04-15T00:02:44.612Z,14.39
2018-04-15T00:05:12.992Z,14.42
2018-04-15T00:07:41.368Z,14.47
2018-04-15T00:10:09.562Z,13.89
2018-04-15T00:12:37.789Z,14.65
2018-04-15T00:17:40.316Z,14.80
2018-04-15T00:20:08.930Z,14.88
2018-04-15T00:22:37.297Z,14.93
2018-04-15T00:25:15.965Z,15.01
2018-04-15T00:27:44.379Z,15.05
2018-04-15T00:30:14.823Z,15.05
2018-04-15T00:32:43.201Z,15.01
2018-04-15T00:35:12.916Z,15.01
2018-04-15T00:37:41.289Z,14.98
2018-04-15T00:40:16.645Z,14.94
2018-04-15T00:42:45.005Z,14.84
2018-04-15T00:45:13.396Z,14.82
2018-04-15T00:47:41.773Z,14.75
2018-04-15T00:50:16.203Z,14.65
2018-04-15T00:52:44.588Z,14.54
2018-04-15T00:55:12.967Z,14.49
2018-04-15T00:57:41.353Z,14.52
2018-04-15T01:00:16.236Z,14.52
2018-04-15T01:02:44.611Z,14.51
2018-04-15T01:05:15.806Z,14.45
2018-04-15T01:07:44.204Z,14.45
2018-04-15T01:10:18.883Z,14.44
2018-04-15T01:12:47.280Z,14.46
2018-04-15T01:15:15.659Z,14.48
2018-04-15T01:17:44.039Z,14.48
2018-04-15T01:20:17.208Z,14.45
2018-04-15T01:22:45.603Z,14.36
2018-04-15T01:25:13.988Z,14.12
2018-04-15T01:27:42.363Z,14.23
2018-04-15T01:30:10.748Z,14.12
2018-04-15T01:32:39.118Z,14.08
2018-04-15T01:35:13.836Z,14.03
2018-04-15T01:37:42.230Z,14.02
2018-04-15T01:40:10.601Z,14.04
2018-04-15T01:42:38.986Z,14.09
2018-04-15T01:45:16.256Z,14.15
2018-04-15T01:47:44.439Z,14.18
2018-04-15T01:50:16.869Z,13.76
2018-04-15T01:52:45.257Z,14.23
2018-04-15T01:55:16.556Z,14.28
2018-04-15T01:57:44.928Z,14.29
2018-04-15T02:00:13.308Z,14.34
2018-04-15T02:02:41.692Z,14.35
2018-04-15T02:05:17.097Z,14.37
2018-04-15T02:07:45.473Z,14.31
2018-04-15T02:10:16.540Z,14.18
2018-04-15T02:12:44.931Z,14.13
2018-04-15T02:15:17.265Z,14.12
2018-04-15T02:17:45.625Z,14.13
2018-04-15T02:20:16.791Z,13.72
2018-04-15T02:22:45.167Z,14.27
2018-04-15T02:25:16.786Z,14.24
2018-04-15T02:27:45.177Z,14.32
2018-04-15T02:30:16.401Z,14.32
2018-04-15T02:32:44.781Z,14.27
2018-04-15T02:35:16.418Z,14.40
2018-04-15T02:37:44.805Z,14.44
2018-04-15T02:40:14.570Z,14.46
2018-04-15T02:42:42.698Z,14.44
2018-04-15T02:45:11.855Z,14.46
2018-04-15T02:47:40.234Z,14.42
2018-04-15T02:50:15.252Z,14.39
2018-04-15T02:52:43.618Z,14.37
2018-04-15T02:55:14.898Z,14.30
2018-04-15T02:57:43.294Z,14.31
2018-04-15T03:00:15.897Z,13.67
2018-04-15T03:02:44.310Z,14.22
2018-04-15T03:05:12.681Z,14.19
2018-04-15T03:07:41.071Z,14.23
2018-04-15T03:10:15.682Z,14.15
2018-04-15T03:12:44.269Z,14.21
2018-04-15T03:15:17.140Z,14.22
2018-04-15T03:17:45.532Z,14.24
2018-04-15T03:20:17.544Z,14.28
2018-04-15T03:22:45.921Z,14.32
2018-04-15T03:25:14.299Z,14.32
2018-04-15T03:27:42.682Z,14.32
2018-04-15T03:30:13.038Z,14.31
2018-04-15T03:32:41.418Z,14.31
2018-04-15T03:35:10.394Z,14.29
2018-04-15T03:37:38.791Z,14.32
2018-04-15T03:40:16.634Z,14.30
2018-04-15T03:42:45.015Z,14.31
2018-04-15T03:45:13.578Z,14.24
2018-04-15T03:47:41.958Z,14.30
2018-04-15T03:50:12.136Z,14.20
2018-04-15T03:52:40.517Z,14.27
2018-04-15T03:55:16.109Z,14.24
2018-04-15T03:57:44.472Z,14.18
2018-04-15T04:00:16.131Z,14.16
2018-04-15T04:02:44.503Z,14.17
2018-04-15T04:05:16.209Z,13.87
2018-04-15T04:07:44.606Z,14.09
2018-04-15T04:10:16.821Z,14.08
2018-04-15T04:12:45.200Z,14.07
2018-04-15T04:15:17.547Z,14.09
2018-04-15T04:17:57.007Z,14.10
2018-04-15T04:20:36.544Z,14.10
2018-04-15T04:23:16.189Z,14.11
2018-04-15T04:25:51.362Z,14.09
2018-04-15T04:28:19.754Z,14.06
2018-04-15T04:30:48.172Z,14.04
2018-04-15T04:33:16.700Z,14.05
2018-04-15T04:35:45.095Z,14.03
2018-04-15T04:38:13.482Z,14.01
2018-04-15T04:40:41.859Z,14.04
2018-04-15T04:43:10.233Z,14.06
2018-04-15T04:45:38.654Z,14.04
2018-04-15T04:48:07.046Z,14.05
2018-04-15T04:50:35.416Z,14.09
2018-04-15T04:53:03.790Z,14.16
2018-04-15T04:55:32.157Z,14.24
2018-04-15T04:58:00.539Z,14.30
2018-04-15T05:00:28.934Z,14.34
2018-04-15T05:02:57.501Z,14.42
2018-04-15T05:05:25.893Z,14.43
2018-04-15T05:07:54.288Z,14.47
2018-04-15T05:10:23.131Z,14.54
2018-04-15T05:12:51.525Z,14.56
2018-04-15T05:15:19.925Z,14.49
2018-04-15T05:17:48.312Z,14.47
2018-04-15T05:20:17.273Z,14.44
2018-04-15T05:22:45.641Z,14.40
2018-04-15T05:25:15.279Z,14.36
2018-04-15T05:27:43.711Z,14.36
2018-04-15T05:30:12.758Z,14.36
2018-04-15T05:32:41.153Z,14.27
2018-04-15T05:35:11.949Z,14.17
2018-04-15T05:37:40.369Z,14.39
2018-04-15T05:40:16.853Z,14.10
2018-04-15T05:42:45.245Z,14.55
2018-04-15T05:45:13.657Z,14.62
2018-04-15T05:47:42.112Z,14.67
2018-04-15T05:50:10.700Z,14.66
2018-04-15T05:52:39.064Z,14.71
2018-04-15T05:55:16.656Z,14.79
2018-04-15T05:57:45.033Z,14.71
2018-04-15T06:00:16.430Z,14.72
2018-04-15T06:02:44.809Z,14.72
2018-04-15T06:05:13.550Z,14.71
2018-04-15T06:07:42.106Z,14.71
2018-04-15T06:10:14.896Z,14.48
2018-04-15T06:12:43.308Z,14.83
2018-04-15T06:15:12.814Z,14.94
2018-04-15T06:17:41.190Z,15.03
2018-04-15T06:20:12.250Z,15.06
2018-04-15T06:22:40.633Z,15.13
2018-04-15T06:25:15.014Z,15.20
2018-04-15T06:27:43.454Z,15.11
2018-04-15T06:30:17.305Z,15.05
2018-04-15T06:32:45.458Z,15.06
2018-04-15T06:35:13.853Z,15.09
2018-04-15T06:37:42.229Z,15.14
2018-04-15T06:40:13.589Z,15.19
2018-04-15T06:42:41.965Z,15.22
2018-04-15T06:45:16.519Z,15.24
2018-04-15T06:47:45.046Z,15.33
2018-04-15T06:50:16.277Z,15.29
2018-04-15T06:52:44.655Z,15.27
2018-04-15T06:55:13.049Z,15.32
2018-04-15T06:57:41.652Z,15.42
2018-04-15T07:00:16.844Z,15.46
2018-04-15T07:02:45.238Z,15.73
2018-04-15T07:05:16.634Z,15.91
2018-04-15T07:07:45.024Z,15.97
2018-04-15T07:10:16.108Z,15.77
2018-04-15T07:12:44.491Z,16.28
2018-04-15T07:15:12.865Z,16.39
2018-04-15T07:17:41.247Z,16.54
2018-04-15T07:20:15.098Z,16.41
2018-04-15T07:22:43.493Z,16.80
2018-04-15T07:25:12.173Z,16.97
2018-04-15T07:27:40.584Z,17.15
2018-04-15T07:30:09.827Z,17.36
2018-04-15T07:32:38.208Z,17.45
2018-04-15T07:35:15.796Z,17.40
2018-04-15T07:37:44.171Z,17.55
2018-04-15T07:40:13.208Z,17.67
2018-04-15T07:42:41.585Z,17.75
2018-04-15T07:45:16.313Z,17.85
2018-04-15T07:47:44.698Z,17.90
2018-04-15T07:50:17.069Z,18.04
2018-04-15T07:52:45.449Z,18.18
2018-04-15T07:55:14.895Z,18.25
2018-04-15T07:57:44.558Z,18.36
2018-04-15T08:00:17.520Z,18.44
2018-04-15T08:02:46.584Z,18.37
2018-04-15T08:05:16.634Z,18.79
2018-04-15T08:07:45.090Z,18.92
2018-04-15T08:10:15.253Z,18.99
2018-04-15T08:12:43.684Z,19.09
2018-04-15T08:15:13.525Z,19.15
2018-04-15T08:17:41.904Z,19.20
2018-04-15T08:20:13.905Z,19.36
2018-04-15T08:22:42.975Z,19.40
2018-04-15T08:25:18.613Z,19.44
2018-04-15T08:27:46.990Z,19.66
2018-04-15T08:30:15.502Z,19.83
2018-04-15T08:32:44.166Z,19.97
2018-04-15T08:35:12.584Z,20.16
2018-04-15T08:37:40.977Z,20.30
2018-04-15T08:40:14.354Z,20.46
2018-04-15T08:42:42.743Z,20.45
2018-04-15T08:45:12.249Z,20.29
2018-04-15T08:47:41.613Z,20.74
2018-04-15T08:50:13.393Z,20.96
2018-04-15T08:52:41.784Z,21.22
2018-04-15T08:55:11.312Z,21.31
2018-04-15T08:57:39.693Z,21.37
2018-04-15T09:00:10.504Z,20.90
2018-04-15T09:02:38.898Z,21.49
2018-04-15T09:05:16.220Z,21.58
2018-04-15T09:07:44.751Z,21.58
2018-04-15T09:10:17.580Z,21.52
2018-04-15T09:12:45.998Z,21.40
2018-04-15T09:15:14.058Z,21.21
2018-04-15T09:17:42.514Z,21.17
2018-04-15T09:20:17.573Z,21.14
2018-04-15T09:22:45.957Z,21.15
2018-04-15T09:25:16.724Z,20.57
2018-04-15T09:27:45.160Z,20.51
2018-04-15T09:30:17.395Z,20.68
2018-04-15T09:32:46.442Z,21.19
2018-04-15T09:35:16.415Z,21.37
2018-04-15T09:37:45.029Z,21.42
2018-04-15T09:40:17.125Z,21.55
2018-04-15T09:42:45.562Z,21.70
2018-04-15T09:45:14.284Z,21.51
2018-04-15T09:47:42.965Z,21.91
2018-04-15T09:50:16.353Z,21.80
2018-04-15T09:52:44.726Z,22.59
2018-04-15T09:55:19.500Z,23.13
2018-04-15T09:57:47.926Z,23.21
2018-04-15T10:00:18.860Z,23.00
2018-04-15T10:02:47.327Z,22.93
2018-04-15T10:05:16.273Z,22.48
2018-04-15T10:07:44.645Z,22.74
2018-04-15T10:10:16.402Z,22.51
2018-04-15T10:12:44.794Z,22.28
2018-04-15T10:15:18.257Z,22.11
2018-04-15T10:17:46.838Z,22.03
2018-04-15T10:20:17.006Z,21.77
2018-04-15T10:22:45.373Z,21.76
2018-04-15T10:25:13.749Z,21.78
2018-04-15T10:27:42.104Z,21.80
2018-04-15T10:30:14.122Z,21.75
2018-04-15T10:32:42.542Z,21.71
2018-04-15T10:35:13.735Z,21.74
2018-04-15T10:37:42.110Z,21.91
2018-04-15T10:40:10.361Z,22.03
2018-04-15T10:42:38.739Z,22.26
2018-04-15T10:45:08.588Z,22.23
2018-04-15T10:47:37.009Z,22.25
2018-04-15T10:50:06.859Z,22.12
2018-04-15T10:52:35.227Z,21.95
2018-04-15T10:55:03.674Z,21.98
2018-04-15T10:57:32.053Z,22.05
2018-04-15T11:00:00.428Z,22.01
2018-04-15T11:02:28.889Z,22.06
2018-04-15T11:04:57.264Z,22.12
2018-04-15T11:07:25.641Z,22.04
2018-04-15T11:09:54.039Z,21.91
2018-04-15T11:12:22.533Z,21.77
2018-04-15T11:14:50.945Z,21.63
2018-04-15T11:17:19.371Z,21.63
2018-04-15T11:19:47.764Z,21.52
2018-04-15T11:22:16.923Z,21.37
2018-04-15T11:24:45.302Z,21.34
2018-04-15T11:27:13.674Z,21.36
2018-04-15T11:29:42.058Z,21.39
2018-04-15T11:32:10.454Z,21.48
2018-04-15T11:34:38.834Z,21.60
2018-04-15T11:37:07.469Z,21.68
2018-04-15T11:39:35.868Z,21.66
2018-04-15T11:42:04.312Z,21.86
2018-04-15T11:44:32.673Z,22.13
2018-04-15T11:47:01.061Z,22.32
2018-04-15T11:49:29.225Z,22.40
2018-04-15T11:51:57.263Z,22.27
2018-04-15T11:54:25.646Z,22.28
2018-04-15T11:56:54.089Z,22.33
2018-04-15T11:59:23.092Z,22.30
2018-04-15T12:01:51.472Z,22.25
2018-04-15T12:04:19.882Z,22.30
2018-04-15T12:06:48.278Z,22.34
2018-04-15T12:09:16.690Z,22.19
2018-04-15T12:11:45.071Z,22.16
2018-04-15T12:14:13.452Z,22.18
2018-04-15T12:16:41.852Z,22.21
2018-04-15T12:19:10.236Z,22.34
2018-04-15T12:21:38.665Z,22.57
2018-04-15T12:24:07.068Z,22.70
2018-04-15T12:26:35.512Z,22.85
2018-04-15T12:29:03.915Z,22.90
2018-04-15T12:31:32.294Z,22.87
2018-04-15T12:34:00.716Z,22.99
2018-04-15T12:36:29.577Z,23.14
2018-04-15T12:38:58.257Z,23.37
2018-04-15T12:41:26.668Z,23.41
2018-04-15T12:43:55.303Z,23.53
2018-04-15T12:46:23.683Z,23.70
2018-04-15T12:48:52.152Z,23.66
2018-04-15T12:51:20.539Z,23.68
2018-04-15T12:53:49.118Z,23.48
2018-04-15T12:56:17.483Z,23.44
2018-04-15T12:58:46.225Z,23.51
2018-04-15T13:01:17.463Z,23.49
2018-04-15T13:03:46.556Z,23.46
2018-04-15T13:06:15.039Z,23.50
2018-04-15T13:08:43.452Z,23.46
2018-04-15T13:11:11.828Z,23.59
2018-04-15T13:13:40.399Z,23.82
2018-04-15T13:16:09.229Z,23.92
2018-04-15T13:18:37.849Z,23.92
2018-04-15T13:21:06.239Z,23.94
2018-04-15T13:23:34.799Z,23.97
2018-04-15T13:26:02.950Z,24.18
2018-04-15T13:28:31.328Z,24.28
2018-04-15T13:30:59.720Z,24.19
2018-04-15T13:33:28.138Z,24.24
2018-04-15T13:35:56.505Z,24.17
2018-04-15T13:38:24.877Z,24.18
2018-04-15T13:40:54.118Z,24.09
2018-04-15T13:43:22.564Z,24.07
2018-04-15T13:45:50.779Z,24.11
2018-04-15T13:48:18.937Z,24.05
2018-04-15T13:50:47.332Z,24.03
2018-04-15T13:53:15.744Z,23.73
2018-04-15T13:55:44.294Z,23.75
2018-04-15T13:58:12.685Z,23.58
2018-04-15T14:00:41.083Z,23.57
2018-04-15T14:03:09.463Z,23.51
2018-04-15T14:05:37.893Z,23.41
2018-04-15T14:08:06.281Z,23.43
2018-04-15T14:10:34.678Z,23.40
2018-04-15T14:13:03.068Z,23.44
2018-04-15T14:15:31.211Z,23.45
2018-04-15T14:17:59.359Z,23.46
2018-04-15T14:20:27.743Z,23.38
2018-04-15T14:22:55.890Z,23.40
2018-04-15T14:25:24.357Z,23.41
2018-04-15T14:27:52.913Z,23.45
2018-04-15T14:30:21.291Z,23.42
2018-04-15T14:32:49.695Z,23.43
2018-04-15T14:37:55.418Z,23.45
2018-04-15T14:40:28.989Z,23.33
2018-04-15T14:42:57.841Z,23.32
2018-04-15T14:45:26.256Z,23.27
2018-04-15T14:47:54.659Z,23.15
2018-04-15T14:50:23.062Z,23.15
2018-04-15T14:52:51.465Z,23.10
2018-04-15T14:55:19.867Z,23.02
2018-04-15T14:57:48.261Z,22.99
2018-04-15T15:00:18.385Z,22.94
2018-04-15T15:02:49.007Z,22.91
2018-04-15T15:05:17.247Z,22.85
2018-04-15T15:07:45.637Z,22.78
2018-04-15T15:10:13.831Z,22.71
2018-04-15T15:12:42.211Z,22.67
2018-04-15T15:15:17.146Z,22.63
2018-04-15T15:17:45.559Z,22.58
2018-04-15T15:20:17.501Z,22.59
2018-04-15T15:22:45.916Z,22.58
2018-04-15T15:25:14.477Z,22.53
2018-04-15T15:27:42.713Z,22.50
2018-04-15T15:30:11.124Z,22.48
2018-04-15T15:32:39.313Z,22.47
2018-04-15T15:35:16.415Z,21.80
2018-04-15T15:37:44.789Z,22.37
2018-04-15T15:40:14.517Z,22.34
2018-04-15T15:42:43.500Z,22.30
2018-04-15T15:45:17.171Z,22.28
2018-04-15T15:47:45.686Z,22.23
2018-04-15T15:50:14.245Z,22.22
2018-04-15T15:52:42.804Z,22.23
2018-04-15T15:55:16.737Z,22.22
2018-04-15T15:57:45.276Z,22.17
2018-04-15T16:00:15.328Z,22.19
2018-04-15T16:02:43.892Z,22.17
2018-04-15T16:05:17.723Z,22.17
2018-04-15T16:07:45.982Z,22.04
2018-04-15T16:10:16.428Z,22.13
2018-04-15T16:12:44.878Z,22.13
2018-04-15T16:15:14.309Z,22.12
2018-04-15T16:17:43.104Z,22.10
2018-04-15T16:20:16.525Z,22.08
2018-04-15T16:22:45.387Z,22.08
2018-04-15T16:25:13.833Z,22.07
2018-04-15T16:27:42.333Z,22.10
2018-04-15T16:30:14.764Z,21.59
2018-04-15T16:32:43.147Z,22.08
2018-04-15T16:35:15.642Z,21.57
2018-04-15T16:37:44.066Z,22.09
2018-04-15T16:40:14.667Z,22.04
2018-04-15T16:42:42.842Z,22.05
2018-04-15T16:45:15.621Z,22.01
2018-04-15T16:47:43.810Z,21.95
2018-04-15T16:50:24.828Z,21.92
2018-04-15T16:52:54.153Z,21.89
2018-04-15T16:55:24.531Z,21.87
2018-04-15T16:57:52.962Z,21.84
2018-04-15T17:00:23.767Z,21.80
2018-04-15T17:02:52.146Z,21.75
2018-04-15T17:05:20.571Z,21.68
2018-04-15T17:07:48.960Z,21.62
2018-04-15T17:10:18.922Z,21.60
2018-04-15T17:12:48.127Z,21.55
2018-04-15T17:15:16.531Z,21.52
2018-04-15T17:17:44.961Z,21.52
2018-04-15T17:20:14.273Z,20.91
2018-04-15T17:22:42.689Z,21.45
2018-04-15T17:25:11.166Z,21.38
2018-04-15T17:27:39.547Z,21.35
2018-04-15T17:30:15.145Z,21.23
2018-04-15T17:32:43.542Z,21.22
2018-04-15T17:35:16.876Z,20.64
2018-04-15T17:37:45.297Z,21.17
2018-04-15T17:40:17.484Z,21.15
2018-04-15T17:42:45.877Z,21.14
2018-04-15T17:45:17.196Z,21.11
2018-04-15T17:47:45.589Z,21.07
2018-04-15T17:50:16.893Z,21.08
2018-04-15T17:52:45.279Z,21.06
2018-04-15T17:55:16.062Z,21.01
2018-04-15T17:57:44.645Z,21.05
2018-04-15T18:00:16.864Z,21.08
2018-04-15T18:02:45.598Z,21.04
2018-04-15T18:05:21.549Z,21.06
2018-04-15T18:07:49.943Z,21.05
2018-04-15T18:10:18.348Z,21.10
2018-04-15T18:12:47.022Z,21.05
2018-04-15T18:15:15.975Z,21.08
2018-04-15T18:17:44.436Z,21.08
2018-04-15T18:20:16.026Z,21.09
2018-04-15T18:22:44.408Z,21.10
2018-04-15T18:25:12.880Z,21.12
2018-04-15T18:27:41.370Z,21.14
2018-04-15T18:30:17.005Z,20.65
2018-04-15T18:32:50.535Z,21.17
2018-04-15T18:35:19.021Z,21.20
2018-04-15T18:37:47.625Z,21.21
2018-04-15T18:40:16.064Z,21.16
2018-04-15T18:42:44.568Z,21.04
2018-04-15T18:45:13.478Z,20.97
2018-04-15T18:47:42.087Z,20.88
2018-04-15T18:50:16.785Z,20.79
2018-04-15T18:52:45.353Z,20.74
2018-04-15T18:55:17.457Z,20.69
2018-04-15T18:57:45.995Z,20.67
2018-04-15T19:00:18.304Z,20.66
2018-04-15T19:02:46.711Z,20.61
2018-04-15T19:05:22.583Z,20.58
2018-04-15T19:07:53.215Z,20.56
2018-04-15T19:10:21.795Z,20.46
2018-04-15T19:12:50.194Z,20.46
2018-04-15T19:15:18.760Z,20.48
2018-04-15T19:17:47.317Z,20.45
2018-04-15T19:20:17.650Z,19.83
2018-04-15T19:22:46.518Z,20.44
2018-04-15T19:25:17.703Z,20.49
2018-04-15T19:27:46.097Z,20.48
2018-04-15T19:30:17.852Z,19.85
2018-04-15T19:32:46.439Z,20.38
2018-04-15T19:35:17.406Z,20.40
2018-04-15T19:37:45.869Z,20.37
2018-04-15T19:40:17.199Z,20.34
2018-04-15T19:42:45.596Z,20.27
2018-04-15T19:45:17.592Z,19.80
2018-04-15T19:47:45.750Z,20.13
2018-04-15T19:50:15.495Z,19.49
2018-04-15T19:52:44.099Z,19.99
2018-04-15T19:55:16.593Z,19.98
2018-04-15T19:57:45.033Z,19.91
2018-04-15T20:00:17.097Z,19.81
2018-04-15T20:02:45.500Z,19.78
2018-04-15T20:05:18.221Z,19.75
2018-04-15T20:07:46.608Z,19.72
2018-04-15T20:10:15.161Z,19.71
2018-04-15T20:12:43.939Z,19.71
2018-04-15T20:15:16.095Z,19.26
2018-04-15T20:17:44.549Z,19.82
2018-04-15T20:20:13.080Z,19.82
2018-04-15T20:22:41.696Z,19.77
2018-04-15T20:25:16.424Z,19.84
2018-04-15T20:27:45.405Z,19.84
2018-04-15T20:30:16.656Z,19.77
2018-04-15T20:32:45.074Z,19.76
2018-04-15T20:35:14.220Z,19.61
2018-04-15T20:37:43.402Z,19.72
2018-04-15T20:40:13.477Z,19.43
2018-04-15T20:42:41.920Z,19.63
2018-04-15T20:45:10.310Z,19.56
2018-04-15T20:47:38.776Z,19.56
2018-04-15T20:50:18.223Z,19.49
2018-04-15T20:52:46.759Z,19.50
2018-04-15T20:55:17.733Z,19.48
2018-04-15T20:57:46.212Z,19.46
2018-04-15T21:00:17.241Z,19.45
2018-04-15T21:02:45.619Z,19.39
2018-04-15T21:05:15.121Z,19.41
2018-04-15T21:07:43.490Z,19.41
2018-04-15T21:10:15.414Z,19.37
2018-04-15T21:12:43.993Z,19.38
2018-04-15T21:15:17.180Z,19.40
2018-04-15T21:17:45.591Z,19.39
2018-04-15T21:20:15.065Z,19.38
2018-04-15T21:22:43.445Z,19.39
2018-04-15T21:25:17.102Z,19.40
2018-04-15T21:27:45.605Z,19.41
2018-04-15T21:30:17.133Z,19.34
2018-04-15T21:32:45.309Z,19.21
2018-04-15T21:35:16.705Z,19.14
2018-04-15T21:37:45.685Z,19.05
2018-04-15T21:40:16.766Z,18.98
2018-04-15T21:42:45.158Z,18.97
2018-04-15T21:45:18.325Z,18.92
2018-04-15T21:47:46.562Z,18.89
2018-04-15T21:50:18.848Z,18.27
2018-04-15T21:52:47.167Z,18.92
2018-04-15T21:55:17.080Z,18.99
2018-04-15T21:57:45.463Z,19.02
2018-04-15T22:00:17.039Z,19.01
2018-04-15T22:02:45.489Z,19.00
2018-04-15T22:05:16.680Z,18.46
2018-04-15T22:07:45.087Z,18.97
2018-04-15T22:10:13.660Z,19.01
2018-04-15T22:12:42.210Z,19.03
2018-04-15T22:15:18.904Z,19.07
2018-04-15T22:17:47.278Z,19.14
2018-04-15T22:20:17.047Z,19.16
2018-04-15T22:22:45.446Z,19.23
2018-04-15T22:25:17.051Z,19.32
2018-04-15T22:27:45.226Z,19.36
2018-04-15T22:30:17.184Z,19.31
2018-04-15T22:32:45.619Z,19.27
2018-04-15T22:35:13.993Z,19.30
2018-04-15T22:37:42.675Z,19.33
2018-04-15T22:40:16.074Z,19.32
2018-04-15T22:42:44.457Z,19.25
2018-04-15T22:45:16.721Z,19.32
2018-04-15T22:47:50.427Z,19.34
2018-04-15T22:50:18.841Z,19.30
2018-04-15T22:52:47.239Z,19.35
2018-04-15T22:55:16.646Z,19.38
2018-04-15T22:57:45.022Z,19.39
2018-04-15T23:00:17.008Z,19.39
2018-04-15T23:02:45.383Z,19.39
2018-04-15T23:05:15.697Z,19.39
2018-04-15T23:07:44.089Z,19.35
2018-04-15T23:10:16.749Z,19.23
2018-04-15T23:12:45.136Z,19.19
2018-04-15T23:15:15.917Z,19.11
2018-04-15T23:17:44.293Z,19.02
2018-04-15T23:20:15.761Z,19.01
2018-04-15T23:22:44.154Z,19.03
2018-04-15T23:25:15.959Z,19.07
2018-04-15T23:27:44.333Z,19.08
2018-04-15T23:30:16.853Z,19.13
2018-04-15T23:32:45.221Z,19.06
2018-04-15T23:35:16.528Z,17.98
2018-04-15T23:37:44.918Z,18.80
2018-04-15T23:40:16.493Z,18.73
2018-04-15T23:42:44.873Z,18.42
2018-04-15T23:45:13.261Z,18.81
2018-04-15T23:47:42.325Z,18.80
2018-04-15T23:50:16.211Z,18.86
2018-04-15T23:52:44.593Z,18.88
2018-04-15T23:55:16.782Z,18.94
2018-04-15T23:57:45.201Z,19.01
